Terminal Aerodrome Forecast
Issued by NWS Detroit/Pontiac, MI

Home | Current Version | Previous Version | Text Only | Print | Product List | Glossary On
Versions: 1 2 3 4 5 6 7 8 9 10 11 12 13 14 15 16 17 18 19 20 21 22 23 24 25 26 27 28 29 30 31 32 33 34 35 36 37 38 39 40 41 42 43 44
333
FTUS43 KDTX 241720
TAFDTW
TAF
KDTW 241720Z 2418/2524 22008KT P6SM SCT070 OVC120
     FM242000 24011KT P6SM BKN045 OVC100
     FM250300 02012G20KT P6SM BKN028 OVC060
     FM250700 01012KT P6SM SCT040
     FM251400 35010KT P6SM SKC=

USA.gov is the U.S. government's official web portal to all federal, state and local government web resources and services.